sensor_id;sensor_type;location;lat;lon;timestamp;temperature;humidity
57058;DHT22;55017;52.848;6.748;2023-07-16T00:02:07;17.10;99.90
57058;DHT22;55017;52.848;6.748;2023-07-16T00:04:33;17.00;99.90
57058;DHT22;55017;52.848;6.748;2023-07-16T00:07:00;17.00;99.90
57058;DHT22;55017;52.848;6.748;2023-07-16T00:09:26;17.00;99.90
57058;DHT22;55017;52.848;6.748;2023-07-16T00:11:51;16.90;99.90
57058;DHT22;55017;52.848;6.748;2023-07-16T00:14:17;16.90;99.90
57058;DHT22;55017;52.848;6.748;2023-07-16T00:16:43;16.90;99.90
57058;DHT22;55017;52.848;6.748;2023-07-16T00:19:11;16.90;99.90
57058;DHT22;55017;52.848;6.748;2023-07-16T00:21:37;16.90;99.90
57058;DHT22;55017;52.848;6.748;2023-07-16T00:24:03;16.90;99.90
57058;DHT22;55017;52.848;6.748;2023-07-16T00:26:29;16.70;99.90
57058;DHT22;55017;52.848;6.748;2023-07-16T00:28:54;16.80;99.90
57058;DHT22;55017;52.848;6.748;2023-07-16T00:31:20;16.80;99.90
57058;DHT22;55017;52.848;6.748;2023-07-16T00:33:45;16.70;99.90
57058;DHT22;55017;52.848;6.748;2023-07-16T00:36:11;16.80;99.90
57058;DHT22;55017;52.848;6.748;2023-07-16T00:38:36;16.70;99.90
57058;DHT22;55017;52.848;6.748;2023-07-16T00:41:02;16.70;99.90
57058;DHT22;55017;52.848;6.748;2023-07-16T00:43:28;16.70;99.90
57058;DHT22;55017;52.848;6.748;2023-07-16T00:45:53;16.70;99.90
57058;DHT22;55017;52.848;6.748;2023-07-16T00:48:19;16.60;99.90
57058;DHT22;55017;52.848;6.748;2023-07-16T00:50:45;16.60;99.90
57058;DHT22;55017;52.848;6.748;2023-07-16T00:53:12;16.50;99.90
57058;DHT22;55017;52.848;6.748;2023-07-16T00:55:38;16.40;99.90
57058;DHT22;55017;52.848;6.748;2023-07-16T00:58:06;16.50;99.90
57058;DHT22;55017;52.848;6.748;2023-07-16T01:00:33;16.50;99.90
57058;DHT22;55017;52.848;6.748;2023-07-16T01:03:01;16.50;99.90
57058;DHT22;55017;52.848;6.748;2023-07-16T01:05:34;16.40;99.90
57058;DHT22;55017;52.848;6.748;2023-07-16T01:08:04;16.30;99.90
57058;DHT22;55017;52.848;6.748;2023-07-16T01:10:32;16.30;99.90
57058;DHT22;55017;52.848;6.748;2023-07-16T01:12:58;16.30;99.90
57058;DHT22;55017;52.848;6.748;2023-07-16T01:15:24;16.20;99.90
57058;DHT22;55017;52.848;6.748;2023-07-16T01:17:50;16.10;99.90
57058;DHT22;55017;52.848;6.748;2023-07-16T01:20:15;16.10;99.90
57058;DHT22;55017;52.848;6.748;2023-07-16T01:28:22;16.10;99.90
57058;DHT22;55017;52.848;6.748;2023-07-16T01:30:54;16.20;99.90
57058;DHT22;55017;52.848;6.748;2023-07-16T01:33:20;16.20;99.90
57058;DHT22;55017;52.848;6.748;2023-07-16T01:35:47;16.20;99.90
57058;DHT22;55017;52.848;6.748;2023-07-16T01:38:13;16.20;99.90
57058;DHT22;55017;52.848;6.748;2023-07-16T01:40:41;16.20;99.90
57058;DHT22;55017;52.848;6.748;2023-07-16T01:43:06;16.20;99.90
57058;DHT22;55017;52.848;6.748;2023-07-16T01:45:32;16.20;99.90
57058;DHT22;55017;52.848;6.748;2023-07-16T01:50:53;16.20;99.90
57058;DHT22;55017;52.848;6.748;2023-07-16T01:53:19;16.30;99.90
57058;DHT22;55017;52.848;6.748;2023-07-16T01:55:45;16.30;99.90
57058;DHT22;55017;52.848;6.748;2023-07-16T01:58:10;16.30;99.90
57058;DHT22;55017;52.848;6.748;2023-07-16T02:00:36;16.20;99.90
57058;DHT22;55017;52.848;6.748;2023-07-16T02:03:02;16.30;99.90
57058;DHT22;55017;52.848;6.748;2023-07-16T02:05:28;16.40;99.90
57058;DHT22;55017;52.848;6.748;2023-07-16T02:07:54;16.50;99.90
57058;DHT22;55017;52.848;6.748;2023-07-16T02:10:19;16.40;99.90
57058;DHT22;55017;52.848;6.748;2023-07-16T02:12:45;16.40;99.90
57058;DHT22;55017;52.848;6.748;2023-07-16T02:15:10;16.50;99.90
57058;DHT22;55017;52.848;6.748;2023-07-16T02:17:36;16.50;99.90
57058;DHT22;55017;52.848;6.748;2023-07-16T02:20:02;16.40;99.90
57058;DHT22;55017;52.848;6.748;2023-07-16T02:22:30;16.30;99.90
57058;DHT22;55017;52.848;6.748;2023-07-16T02:24:56;16.20;99.90
57058;DHT22;55017;52.848;6.748;2023-07-16T02:27:22;16.10;99.90
57058;DHT22;55017;52.848;6.748;2023-07-16T02:29:47;16.10;99.90
57058;DHT22;55017;52.848;6.748;2023-07-16T02:32:13;16.30;99.90
57058;DHT22;55017;52.848;6.748;2023-07-16T02:34:39;16.20;99.90
57058;DHT22;55017;52.848;6.748;2023-07-16T02:37:04;16.20;99.90
57058;DHT22;55017;52.848;6.748;2023-07-16T02:39:30;16.10;99.90
57058;DHT22;55017;52.848;6.748;2023-07-16T02:41:55;16.10;99.90
57058;DHT22;55017;52.848;6.748;2023-07-16T02:44:21;16.10;99.90
57058;DHT22;55017;52.848;6.748;2023-07-16T02:46:46;16.10;99.90
57058;DHT22;55017;52.848;6.748;2023-07-16T02:49:12;16.10;99.90
57058;DHT22;55017;52.848;6.748;2023-07-16T02:51:38;16.00;99.90
57058;DHT22;55017;52.848;6.748;2023-07-16T02:54:03;16.10;99.90
57058;DHT22;55017;52.848;6.748;2023-07-16T02:56:29;16.10;99.90
57058;DHT22;55017;52.848;6.748;2023-07-16T02:58:54;16.00;99.90
57058;DHT22;55017;52.848;6.748;2023-07-16T03:01:21;16.00;99.90
57058;DHT22;55017;52.848;6.748;2023-07-16T03:03:46;16.00;99.90
57058;DHT22;55017;52.848;6.748;2023-07-16T03:06:12;16.00;99.90
57058;DHT22;55017;52.848;6.748;2023-07-16T03:08:37;16.10;99.90
57058;DHT22;55017;52.848;6.748;2023-07-16T03:11:03;16.10;99.90
57058;DHT22;55017;52.848;6.748;2023-07-16T03:13:28;16.10;99.90
57058;DHT22;55017;52.848;6.748;2023-07-16T03:15:54;16.10;99.90
57058;DHT22;55017;52.848;6.748;2023-07-16T03:18:19;16.10;99.90
57058;DHT22;55017;52.848;6.748;2023-07-16T03:20:45;16.10;99.90
57058;DHT22;55017;52.848;6.748;2023-07-16T03:23:11;16.00;99.90
57058;DHT22;55017;52.848;6.748;2023-07-16T03:25:36;16.00;99.90
57058;DHT22;55017;52.848;6.748;2023-07-16T03:28:02;16.10;99.90
57058;DHT22;55017;52.848;6.748;2023-07-16T03:30:29;16.00;99.90
57058;DHT22;55017;52.848;6.748;2023-07-16T03:32:55;16.10;99.90
57058;DHT22;55017;52.848;6.748;2023-07-16T03:35:21;16.10;99.90
57058;DHT22;55017;52.848;6.748;2023-07-16T03:37:46;16.00;99.90
57058;DHT22;55017;52.848;6.748;2023-07-16T03:40:16;16.00;99.90
57058;DHT22;55017;52.848;6.748;2023-07-16T03:42:43;16.00;99.90
57058;DHT22;55017;52.848;6.748;2023-07-16T03:45:10;16.00;99.90
57058;DHT22;55017;52.848;6.748;2023-07-16T03:47:36;16.00;99.90
57058;DHT22;55017;52.848;6.748;2023-07-16T03:50:02;16.00;99.90
57058;DHT22;55017;52.848;6.748;2023-07-16T03:52:28;15.90;99.90
57058;DHT22;55017;52.848;6.748;2023-07-16T03:54:54;15.90;99.90
57058;DHT22;55017;52.848;6.748;2023-07-16T03:57:20;15.90;99.90
57058;DHT22;55017;52.848;6.748;2023-07-16T03:59:46;16.00;99.90
57058;DHT22;55017;52.848;6.748;2023-07-16T04:02:12;15.90;99.90
57058;DHT22;55017;52.848;6.748;2023-07-16T04:04:37;15.90;99.90
57058;DHT22;55017;52.848;6.748;2023-07-16T04:07:03;15.90;99.90
57058;DHT22;55017;52.848;6.748;2023-07-16T04:09:28;15.90;99.90
57058;DHT22;55017;52.848;6.748;2023-07-16T04:11:54;16.00;99.90
57058;DHT22;55017;52.848;6.748;2023-07-16T04:14:19;16.00;99.90
57058;DHT22;55017;52.848;6.748;2023-07-16T04:16:45;15.90;99.90
57058;DHT22;55017;52.848;6.748;2023-07-16T04:19:10;15.90;99.90
57058;DHT22;55017;52.848;6.748;2023-07-16T04:21:36;16.00;99.90
57058;DHT22;55017;52.848;6.748;2023-07-16T04:24:02;15.90;99.90
57058;DHT22;55017;52.848;6.748;2023-07-16T04:26:28;16.00;99.90
57058;DHT22;55017;52.848;6.748;2023-07-16T04:28:54;15.90;99.90
57058;DHT22;55017;52.848;6.748;2023-07-16T04:31:19;16.10;99.90
57058;DHT22;55017;52.848;6.748;2023-07-16T04:33:45;16.20;99.90
57058;DHT22;55017;52.848;6.748;2023-07-16T04:36:11;16.10;99.90
57058;DHT22;55017;52.848;6.748;2023-07-16T04:38:36;16.20;99.90
57058;DHT22;55017;52.848;6.748;2023-07-16T04:41:02;16.20;99.90
57058;DHT22;55017;52.848;6.748;2023-07-16T04:43:27;16.20;99.90
57058;DHT22;55017;52.848;6.748;2023-07-16T04:45:53;16.20;99.90
57058;DHT22;55017;52.848;6.748;2023-07-16T04:48:19;16.30;99.90
57058;DHT22;55017;52.848;6.748;2023-07-16T04:50:44;16.30;99.90
57058;DHT22;55017;52.848;6.748;2023-07-16T04:53:10;16.40;99.90
57058;DHT22;55017;52.848;6.748;2023-07-16T04:55:38;16.40;99.90
57058;DHT22;55017;52.848;6.748;2023-07-16T04:58:09;16.50;99.90
57058;DHT22;55017;52.848;6.748;2023-07-16T05:00:34;16.40;99.90
57058;DHT22;55017;52.848;6.748;2023-07-16T05:03:00;16.60;99.90
57058;DHT22;55017;52.848;6.748;2023-07-16T05:05:26;16.60;99.90
57058;DHT22;55017;52.848;6.748;2023-07-16T05:07:51;16.60;99.90
57058;DHT22;55017;52.848;6.748;2023-07-16T05:10:17;16.60;99.90
57058;DHT22;55017;52.848;6.748;2023-07-16T05:12:42;16.60;99.90
57058;DHT22;55017;52.848;6.748;2023-07-16T05:15:08;16.60;99.90
57058;DHT22;55017;52.848;6.748;2023-07-16T05:17:34;16.70;99.90
57058;DHT22;55017;52.848;6.748;2023-07-16T05:19:59;16.70;99.90
57058;DHT22;55017;52.848;6.748;2023-07-16T05:22:25;16.70;99.90
57058;DHT22;55017;52.848;6.748;2023-07-16T05:24:51;16.80;99.90
57058;DHT22;55017;52.848;6.748;2023-07-16T05:27:16;16.80;99.90
57058;DHT22;55017;52.848;6.748;2023-07-16T05:29:42;16.90;99.90
57058;DHT22;55017;52.848;6.748;2023-07-16T05:32:08;16.80;99.90
57058;DHT22;55017;52.848;6.748;2023-07-16T05:34:33;16.90;99.90
57058;DHT22;55017;52.848;6.748;2023-07-16T05:36:59;16.90;99.90
57058;DHT22;55017;52.848;6.748;2023-07-16T05:39:25;17.20;99.90
57058;DHT22;55017;52.848;6.748;2023-07-16T05:41:50;17.10;99.90
57058;DHT22;55017;52.848;6.748;2023-07-16T05:44:16;17.20;99.90
57058;DHT22;55017;52.848;6.748;2023-07-16T05:46:42;17.20;99.90
57058;DHT22;55017;52.848;6.748;2023-07-16T05:49:07;17.30;99.90
57058;DHT22;55017;52.848;6.748;2023-07-16T05:51:33;17.20;99.90
57058;DHT22;55017;52.848;6.748;2023-07-16T05:53:59;17.40;99.90
57058;DHT22;55017;52.848;6.748;2023-07-16T05:56:24;17.50;99.90
57058;DHT22;55017;52.848;6.748;2023-07-16T05:58:50;17.50;99.90
57058;DHT22;55017;52.848;6.748;2023-07-16T06:01:15;17.50;99.90
57058;DHT22;55017;52.848;6.748;2023-07-16T06:03:41;17.50;99.90
57058;DHT22;55017;52.848;6.748;2023-07-16T06:06:08;17.70;99.90
57058;DHT22;55017;52.848;6.748;2023-07-16T06:08:34;17.70;99.90
57058;DHT22;55017;52.848;6.748;2023-07-16T06:11:00;17.80;99.90
57058;DHT22;55017;52.848;6.748;2023-07-16T06:13:25;17.80;99.90
57058;DHT22;55017;52.848;6.748;2023-07-16T06:15:51;17.90;99.90
57058;DHT22;55017;52.848;6.748;2023-07-16T06:18:16;17.90;99.90
57058;DHT22;55017;52.848;6.748;2023-07-16T06:20:45;17.90;99.90
57058;DHT22;55017;52.848;6.748;2023-07-16T06:23:14;18.10;99.90
57058;DHT22;55017;52.848;6.748;2023-07-16T06:25:41;18.00;99.90
57058;DHT22;55017;52.848;6.748;2023-07-16T06:28:10;18.00;99.90
57058;DHT22;55017;52.848;6.748;2023-07-16T06:30:36;18.10;99.90
57058;DHT22;55017;52.848;6.748;2023-07-16T06:33:02;18.20;99.90
57058;DHT22;55017;52.848;6.748;2023-07-16T06:35:27;18.30;99.90
57058;DHT22;55017;52.848;6.748;2023-07-16T06:37:53;18.20;99.90
57058;DHT22;55017;52.848;6.748;2023-07-16T06:40:18;18.30;99.90
57058;DHT22;55017;52.848;6.748;2023-07-16T06:42:44;18.40;99.90
57058;DHT22;55017;52.848;6.748;2023-07-16T06:45:10;18.50;99.90
57058;DHT22;55017;52.848;6.748;2023-07-16T06:47:35;18.50;99.90
57058;DHT22;55017;52.848;6.748;2023-07-16T06:50:01;18.70;99.90
57058;DHT22;55017;52.848;6.748;2023-07-16T06:52:26;18.70;99.90
57058;DHT22;55017;52.848;6.748;2023-07-16T06:54:54;18.80;99.90
57058;DHT22;55017;52.848;6.748;2023-07-16T06:57:20;18.80;99.90
57058;DHT22;55017;52.848;6.748;2023-07-16T06:59:46;18.90;99.90
57058;DHT22;55017;52.848;6.748;2023-07-16T07:02:12;19.10;99.90
57058;DHT22;55017;52.848;6.748;2023-07-16T07:04:38;19.10;99.90
57058;DHT22;55017;52.848;6.748;2023-07-16T07:07:04;19.20;99.90
57058;DHT22;55017;52.848;6.748;2023-07-16T07:09:30;19.40;99.90
57058;DHT22;55017;52.848;6.748;2023-07-16T07:11:55;19.40;99.90
57058;DHT22;55017;52.848;6.748;2023-07-16T07:14:21;19.40;99.90
57058;DHT22;55017;52.848;6.748;2023-07-16T07:16:47;19.50;99.90
57058;DHT22;55017;52.848;6.748;2023-07-16T07:19:12;19.60;99.90
57058;DHT22;55017;52.848;6.748;2023-07-16T07:21:38;19.60;99.90
57058;DHT22;55017;52.848;6.748;2023-07-16T07:24:03;19.80;99.90
57058;DHT22;55017;52.848;6.748;2023-07-16T07:26:29;19.70;99.90
57058;DHT22;55017;52.848;6.748;2023-07-16T07:28:54;19.80;99.90
57058;DHT22;55017;52.848;6.748;2023-07-16T07:31:20;19.90;99.90
57058;DHT22;55017;52.848;6.748;2023-07-16T07:33:46;20.00;99.90
57058;DHT22;55017;52.848;6.748;2023-07-16T07:36:11;20.10;99.90
57058;DHT22;55017;52.848;6.748;2023-07-16T07:38:37;20.20;99.10
57058;DHT22;55017;52.848;6.748;2023-07-16T07:41:04;20.20;97.80
57058;DHT22;55017;52.848;6.748;2023-07-16T07:43:30;20.20;99.00
57058;DHT22;55017;52.848;6.748;2023-07-16T07:45:55;20.20;97.40
57058;DHT22;55017;52.848;6.748;2023-07-16T07:48:21;20.20;98.50
57058;DHT22;55017;52.848;6.748;2023-07-16T07:50:47;20.20;97.00
57058;DHT22;55017;52.848;6.748;2023-07-16T07:53:13;20.40;96.10
57058;DHT22;55017;52.848;6.748;2023-07-16T07:55:40;20.40;96.70
57058;DHT22;55017;52.848;6.748;2023-07-16T07:58:07;20.50;96.60
57058;DHT22;55017;52.848;6.748;2023-07-16T08:00:33;20.60;95.70
57058;DHT22;55017;52.848;6.748;2023-07-16T08:02:58;20.70;95.00
57058;DHT22;55017;52.848;6.748;2023-07-16T08:05:24;20.80;95.40
57058;DHT22;55017;52.848;6.748;2023-07-16T08:07:50;20.80;94.10
57058;DHT22;55017;52.848;6.748;2023-07-16T08:10:17;20.90;93.90
57058;DHT22;55017;52.848;6.748;2023-07-16T08:12:42;21.10;94.90
57058;DHT22;55017;52.848;6.748;2023-07-16T08:15:10;21.00;94.10
57058;DHT22;55017;52.848;6.748;2023-07-16T08:17:40;21.00;94.70
57058;DHT22;55017;52.848;6.748;2023-07-16T08:20:06;21.10;93.00
57058;DHT22;55017;52.848;6.748;2023-07-16T08:22:32;21.10;93.10
57058;DHT22;55017;52.848;6.748;2023-07-16T08:24:57;21.10;93.20
57058;DHT22;55017;52.848;6.748;2023-07-16T08:27:23;21.00;93.10
57058;DHT22;55017;52.848;6.748;2023-07-16T08:29:49;21.00;93.70
57058;DHT22;55017;52.848;6.748;2023-07-16T08:32:14;21.00;91.90
57058;DHT22;55017;52.848;6.748;2023-07-16T08:34:40;21.00;92.70
57058;DHT22;55017;52.848;6.748;2023-07-16T08:37:05;20.80;92.50
57058;DHT22;55017;52.848;6.748;2023-07-16T08:39:31;20.70;92.50
57058;DHT22;55017;52.848;6.748;2023-07-16T08:41:57;20.50;90.90
57058;DHT22;55017;52.848;6.748;2023-07-16T08:44:23;20.50;91.90
57058;DHT22;55017;52.848;6.748;2023-07-16T08:46:50;20.50;92.70
57058;DHT22;55017;52.848;6.748;2023-07-16T08:49:17;20.50;92.60
57058;DHT22;55017;52.848;6.748;2023-07-16T08:51:45;20.50;93.40
57058;DHT22;55017;52.848;6.748;2023-07-16T08:54:11;20.50;92.90
57058;DHT22;55017;52.848;6.748;2023-07-16T08:56:37;20.40;93.90
57058;DHT22;55017;52.848;6.748;2023-07-16T08:59:03;20.40;93.50
57058;DHT22;55017;52.848;6.748;2023-07-16T09:01:28;20.50;93.40
57058;DHT22;55017;52.848;6.748;2023-07-16T09:03:54;20.40;93.80
57058;DHT22;55017;52.848;6.748;2023-07-16T09:06:20;20.40;94.10
57058;DHT22;55017;52.848;6.748;2023-07-16T09:08:45;20.40;93.50
57058;DHT22;55017;52.848;6.748;2023-07-16T09:11:12;20.50;93.70
57058;DHT22;55017;52.848;6.748;2023-07-16T09:13:45;20.70;93.60
57058;DHT22;55017;52.848;6.748;2023-07-16T09:16:10;20.70;93.00
57058;DHT22;55017;52.848;6.748;2023-07-16T09:18:36;21.10;93.20
57058;DHT22;55017;52.848;6.748;2023-07-16T09:21:01;21.10;92.30
57058;DHT22;55017;52.848;6.748;2023-07-16T09:23:30;21.30;91.90
57058;DHT22;55017;52.848;6.748;2023-07-16T09:25:56;21.20;91.50
57058;DHT22;55017;52.848;6.748;2023-07-16T09:28:22;21.10;90.90
57058;DHT22;55017;52.848;6.748;2023-07-16T09:30:48;21.10;91.20
57058;DHT22;55017;52.848;6.748;2023-07-16T09:33:16;21.30;91.20
57058;DHT22;55017;52.848;6.748;2023-07-16T09:35:42;21.50;91.10
57058;DHT22;55017;52.848;6.748;2023-07-16T09:38:09;21.60;90.30
57058;DHT22;55017;52.848;6.748;2023-07-16T09:40:36;21.80;90.50
57058;DHT22;55017;52.848;6.748;2023-07-16T09:43:02;21.80;90.40
57058;DHT22;55017;52.848;6.748;2023-07-16T09:45:28;21.50;88.90
57058;DHT22;55017;52.848;6.748;2023-07-16T09:47:54;21.20;88.30
57058;DHT22;55017;52.848;6.748;2023-07-16T09:50:20;21.00;90.00
57058;DHT22;55017;52.848;6.748;2023-07-16T09:52:51;20.90;90.00
57058;DHT22;55017;52.848;6.748;2023-07-16T09:55:18;20.70;90.60
57058;DHT22;55017;52.848;6.748;2023-07-16T09:57:47;20.80;90.60
57058;DHT22;55017;52.848;6.748;2023-07-16T10:00:15;20.80;91.60
57058;DHT22;55017;52.848;6.748;2023-07-16T10:02:42;20.80;91.30
57058;DHT22;55017;52.848;6.748;2023-07-16T10:05:27;21.00;91.70
57058;DHT22;55017;52.848;6.748;2023-07-16T10:07:58;20.80;91.70
57058;DHT22;55017;52.848;6.748;2023-07-16T10:10:52;21.20;92.00
57058;DHT22;55017;52.848;6.748;2023-07-16T10:13:22;21.30;90.40
57058;DHT22;55017;52.848;6.748;2023-07-16T10:15:57;21.50;90.30
57058;DHT22;55017;52.848;6.748;2023-07-16T10:18:26;21.50;90.10
57058;DHT22;55017;52.848;6.748;2023-07-16T10:21:06;21.40;90.10
57058;DHT22;55017;52.848;6.748;2023-07-16T10:23:43;21.30;90.40
57058;DHT22;55017;52.848;6.748;2023-07-16T10:26:11;21.30;90.30
57058;DHT22;55017;52.848;6.748;2023-07-16T10:28:37;21.40;90.70
57058;DHT22;55017;52.848;6.748;2023-07-16T10:31:03;21.40;90.70
57058;DHT22;55017;52.848;6.748;2023-07-16T10:33:29;21.30;91.00
57058;DHT22;55017;52.848;6.748;2023-07-16T10:35:57;21.30;90.10
57058;DHT22;55017;52.848;6.748;2023-07-16T10:38:24;21.30;91.40
57058;DHT22;55017;52.848;6.748;2023-07-16T10:40:49;21.10;90.80
57058;DHT22;55017;52.848;6.748;2023-07-16T10:43:15;20.80;91.30
57058;DHT22;55017;52.848;6.748;2023-07-16T10:45:41;20.70;91.70
57058;DHT22;55017;52.848;6.748;2023-07-16T10:48:07;20.70;91.40
57058;DHT22;55017;52.848;6.748;2023-07-16T10:50:33;20.60;92.00
57058;DHT22;55017;52.848;6.748;2023-07-16T10:53:00;20.40;92.30
57058;DHT22;55017;52.848;6.748;2023-07-16T10:55:29;20.40;92.40
57058;DHT22;55017;52.848;6.748;2023-07-16T10:57:58;20.40;92.80
57058;DHT22;55017;52.848;6.748;2023-07-16T11:00:23;20.50;92.90
57058;DHT22;55017;52.848;6.748;2023-07-16T11:02:49;20.70;92.40
57058;DHT22;55017;52.848;6.748;2023-07-16T11:05:16;20.90;92.50
57058;DHT22;55017;52.848;6.748;2023-07-16T11:07:45;21.10;92.30
57058;DHT22;55017;52.848;6.748;2023-07-16T11:10:11;21.10;91.40
57058;DHT22;55017;52.848;6.748;2023-07-16T11:12:37;21.10;91.70
57058;DHT22;55017;52.848;6.748;2023-07-16T11:15:03;21.20;90.60
57058;DHT22;55017;52.848;6.748;2023-07-16T11:17:28;21.40;90.40
57058;DHT22;55017;52.848;6.748;2023-07-16T11:19:55;21.70;90.60
57058;DHT22;55017;52.848;6.748;2023-07-16T11:22:25;21.60;90.10
57058;DHT22;55017;52.848;6.748;2023-07-16T11:24:52;21.60;90.80
57058;DHT22;55017;52.848;6.748;2023-07-16T11:27:31;21.50;90.70
57058;DHT22;55017;52.848;6.748;2023-07-16T11:29:57;21.50;91.10
57058;DHT22;55017;52.848;6.748;2023-07-16T11:32:34;21.50;90.40
57058;DHT22;55017;52.848;6.748;2023-07-16T11:35:04;21.50;90.60
57058;DHT22;55017;52.848;6.748;2023-07-16T11:37:32;21.80;90.60
57058;DHT22;55017;52.848;6.748;2023-07-16T11:40:01;21.80;89.80
57058;DHT22;55017;52.848;6.748;2023-07-16T11:44:56;21.50;88.90
57058;DHT22;55017;52.848;6.748;2023-07-16T11:47:21;21.40;90.20
57058;DHT22;55017;52.848;6.748;2023-07-16T11:49:48;21.30;89.40
57058;DHT22;55017;52.848;6.748;2023-07-16T11:52:14;21.10;88.90
57058;DHT22;55017;52.848;6.748;2023-07-16T11:54:40;21.10;90.80
57058;DHT22;55017;52.848;6.748;2023-07-16T11:57:06;21.00;89.50
57058;DHT22;55017;52.848;6.748;2023-07-16T11:59:31;20.90;90.60
57058;DHT22;55017;52.848;6.748;2023-07-16T12:01:57;20.90;90.50
57058;DHT22;55017;52.848;6.748;2023-07-16T12:04:22;20.90;90.70
57058;DHT22;55017;52.848;6.748;2023-07-16T12:06:48;21.00;90.60
57058;DHT22;55017;52.848;6.748;2023-07-16T12:09:14;21.20;90.50
57058;DHT22;55017;52.848;6.748;2023-07-16T12:11:40;21.50;90.30
57058;DHT22;55017;52.848;6.748;2023-07-16T12:14:06;21.70;90.60
57058;DHT22;55017;52.848;6.748;2023-07-16T12:16:32;21.70;89.30
57058;DHT22;55017;52.848;6.748;2023-07-16T12:18:57;21.60;90.10
57058;DHT22;55017;52.848;6.748;2023-07-16T12:21:23;21.60;89.70
57058;DHT22;55017;52.848;6.748;2023-07-16T12:23:48;21.60;89.40
57058;DHT22;55017;52.848;6.748;2023-07-16T12:26:14;21.60;90.00
57058;DHT22;55017;52.848;6.748;2023-07-16T12:28:40;21.60;89.50
57058;DHT22;55017;52.848;6.748;2023-07-16T12:31:05;21.50;87.00
57058;DHT22;55017;52.848;6.748;2023-07-16T12:33:31;21.30;88.50
57058;DHT22;55017;52.848;6.748;2023-07-16T12:35:56;21.30;89.30
57058;DHT22;55017;52.848;6.748;2023-07-16T12:38:22;21.10;88.00
57058;DHT22;55017;52.848;6.748;2023-07-16T12:40:48;21.00;89.70
57058;DHT22;55017;52.848;6.748;2023-07-16T12:43:14;21.00;90.30
57058;DHT22;55017;52.848;6.748;2023-07-16T12:45:39;21.10;89.90
57058;DHT22;55017;52.848;6.748;2023-07-16T12:48:05;21.30;88.80
57058;DHT22;55017;52.848;6.748;2023-07-16T12:50:31;21.50;89.60
57058;DHT22;55017;52.848;6.748;2023-07-16T12:52:56;22.00;91.20
57058;DHT22;55017;52.848;6.748;2023-07-16T12:55:22;22.30;87.80
57058;DHT22;55017;52.848;6.748;2023-07-16T12:57:49;22.40;85.70
57058;DHT22;55017;52.848;6.748;2023-07-16T13:00:14;22.40;84.60
57058;DHT22;55017;52.848;6.748;2023-07-16T13:02:40;22.40;83.70
57058;DHT22;55017;52.848;6.748;2023-07-16T13:05:05;22.40;84.60
57058;DHT22;55017;52.848;6.748;2023-07-16T13:07:31;22.30;84.30
57058;DHT22;55017;52.848;6.748;2023-07-16T13:09:57;22.30;85.00
57058;DHT22;55017;52.848;6.748;2023-07-16T13:12:23;22.40;84.60
57058;DHT22;55017;52.848;6.748;2023-07-16T13:14:48;22.80;84.90
57058;DHT22;55017;52.848;6.748;2023-07-16T13:17:14;23.10;83.30
57058;DHT22;55017;52.848;6.748;2023-07-16T13:19:41;23.50;83.10
57058;DHT22;55017;52.848;6.748;2023-07-16T13:22:07;23.60;82.50
57058;DHT22;55017;52.848;6.748;2023-07-16T13:24:33;23.50;83.00
57058;DHT22;55017;52.848;6.748;2023-07-16T13:26:58;23.50;79.70
57058;DHT22;55017;52.848;6.748;2023-07-16T13:29:24;23.20;81.40
57058;DHT22;55017;52.848;6.748;2023-07-16T13:31:49;23.10;81.90
57058;DHT22;55017;52.848;6.748;2023-07-16T13:34:15;23.00;83.10
57058;DHT22;55017;52.848;6.748;2023-07-16T13:36:41;23.00;83.70
57058;DHT22;55017;52.848;6.748;2023-07-16T13:39:06;23.00;81.60
57058;DHT22;55017;52.848;6.748;2023-07-16T13:41:32;23.30;80.60
57058;DHT22;55017;52.848;6.748;2023-07-16T13:43:58;23.60;82.30
57058;DHT22;55017;52.848;6.748;2023-07-16T13:46:23;24.00;81.40
57058;DHT22;55017;52.848;6.748;2023-07-16T13:48:49;24.00;79.00
57058;DHT22;55017;52.848;6.748;2023-07-16T13:51:15;24.00;78.40
57058;DHT22;55017;52.848;6.748;2023-07-16T13:53:40;24.10;79.20
57058;DHT22;55017;52.848;6.748;2023-07-16T13:56:06;24.50;79.00
57058;DHT22;55017;52.848;6.748;2023-07-16T13:58:33;24.50;77.20
57058;DHT22;55017;52.848;6.748;2023-07-16T14:00:59;24.60;78.00
57058;DHT22;55017;52.848;6.748;2023-07-16T14:03:25;25.00;77.40
57058;DHT22;55017;52.848;6.748;2023-07-16T14:05:51;26.50;74.80
57058;DHT22;55017;52.848;6.748;2023-07-16T14:08:17;27.30;71.30
57058;DHT22;55017;52.848;6.748;2023-07-16T14:10:43;27.50;70.00
57058;DHT22;55017;52.848;6.748;2023-07-16T14:13:08;27.80;66.60
57058;DHT22;55017;52.848;6.748;2023-07-16T14:15:34;27.20;64.60
57058;DHT22;55017;52.848;6.748;2023-07-16T14:18:00;27.00;66.20
57058;DHT22;55017;52.848;6.748;2023-07-16T14:20:25;27.10;66.10
57058;DHT22;55017;52.848;6.748;2023-07-16T14:22:51;26.70;65.20
57058;DHT22;55017;52.848;6.748;2023-07-16T14:25:16;26.30;63.80
57058;DHT22;55017;52.848;6.748;2023-07-16T14:27:43;25.50;65.70
57058;DHT22;55017;52.848;6.748;2023-07-16T14:30:09;24.80;67.70
57058;DHT22;55017;52.848;6.748;2023-07-16T14:32:36;24.10;69.30
57058;DHT22;55017;52.848;6.748;2023-07-16T14:35:02;23.60;71.00
57058;DHT22;55017;52.848;6.748;2023-07-16T14:37:29;23.30;72.90
57058;DHT22;55017;52.848;6.748;2023-07-16T14:39:54;23.10;74.40
57058;DHT22;55017;52.848;6.748;2023-07-16T14:42:20;22.90;75.00
57058;DHT22;55017;52.848;6.748;2023-07-16T14:44:45;22.90;76.20
57058;DHT22;55017;52.848;6.748;2023-07-16T14:47:11;22.80;75.90
57058;DHT22;55017;52.848;6.748;2023-07-16T14:49:37;23.00;76.40
57058;DHT22;55017;52.848;6.748;2023-07-16T14:52:03;23.10;76.50
57058;DHT22;55017;52.848;6.748;2023-07-16T14:54:28;22.80;77.20
57058;DHT22;55017;52.848;6.748;2023-07-16T14:56:54;22.80;77.60
57058;DHT22;55017;52.848;6.748;2023-07-16T14:59:19;22.50;77.80
57058;DHT22;55017;52.848;6.748;2023-07-16T15:01:46;22.40;77.80
57058;DHT22;55017;52.848;6.748;2023-07-16T15:04:11;22.40;78.50
57058;DHT22;55017;52.848;6.748;2023-07-16T15:06:38;22.30;80.50
57058;DHT22;55017;52.848;6.748;2023-07-16T15:09:03;22.10;79.00
57058;DHT22;55017;52.848;6.748;2023-07-16T15:11:29;22.00;79.70
57058;DHT22;55017;52.848;6.748;2023-07-16T15:13:55;22.00;81.30
57058;DHT22;55017;52.848;6.748;2023-07-16T15:16:20;22.00;82.70
57058;DHT22;55017;52.848;6.748;2023-07-16T15:18:46;22.30;83.50
57058;DHT22;55017;52.848;6.748;2023-07-16T15:21:11;22.50;82.20
57058;DHT22;55017;52.848;6.748;2023-07-16T15:23:37;22.90;81.40
57058;DHT22;55017;52.848;6.748;2023-07-16T15:26:05;23.00;78.80
57058;DHT22;55017;52.848;6.748;2023-07-16T15:28:37;23.10;77.30
57058;DHT22;55017;52.848;6.748;2023-07-16T15:31:03;22.90;77.90
57058;DHT22;55017;52.848;6.748;2023-07-16T15:33:29;22.80;78.80
57058;DHT22;55017;52.848;6.748;2023-07-16T15:35:56;22.60;79.50